Pagrindinis puslapis
METAR-TAF:

METAR-TAF

Oro uostai :

Rosh Pinna, Izraelis

platuma: 32-58-48N, ilguma: 035-34-12E, Aukštis: 281 m

Dabartinis oras

Ataskaita buvo paskelbta 1 valandą ir 10 minutes, ne 10:50 UTC
Vėjas 10 kt iš Pietų/Pietryčių
Temperatūra 24°C
Drėgmė 29%
Slėgis 1018 hPa
Matomumas 10 km arba daugiau
nėra debesų žemiau 1500 m ir nėra kamuolinių lietaus debesų

METAR: LLIB 281050Z AUTO 15010KT CAVOK 24/05 Q1018

Laikas: 14:00 (12:00 UTC)

Prognozė

Ataskaita buvo paskelbta 48 minutes, ne 11:12 UTC
Prognozė galioja nuo 28 metu 12 UTC su 29 metu 12 UTC
Vėjas 7 kt iš Pietų/Pietryčių
Matomumas 10 km arba daugiau
nėra debesų žemiau 1500 m ir nėra kamuolinių lietaus debesų
Tapsmas
nuo 28 metu 13 UTC su 28 metu 15 UTC
Vėjas 4 kt nuo kintamojo kryptimis
Tapsmas
nuo 29 metu 06 UTC su 29 metu 08 UTC
Vėjas 7 kt iš Pietų/Pietryčių

TAF: LLIB 281112Z 2812/2912 15007KT CAVOK BECMG 2813/2815 VRB04KT BECMG 2906/2908 16007KT TX25/2812Z TN10/2904Z

Orai ataskaitas ir orų prognozės (METAR, TAF).

turimą stotys yra geltonos ir raudonos taškus žemėlapyje.

Perkelti pele per norėdami pamatyti stoties vardą.

Tada spustelėkite, norėdami matyti oro stebėjimo ir prognozės.

Norėdami pakeisti žemėlapį: spustelėkite ant žalios mygtukų su juodo kryžiaus žemyn,; žalią mygtuką su brūkšneliu, jei norite nutolinti; arba žalių rodyklių gretimoms žemėlapius.


METAR-TAF: